sensor_id;sensor_type;location;lat;lon;timestamp;P1;durP1;ratioP1;P2;durP2;ratioP2
4365;SDS011;2196;47.422;9.656;2023-11-21T00:01:31;3.50;;;1.00;;
4365;SDS011;2196;47.422;9.656;2023-11-21T00:04:01;5.10;;;1.60;;
4365;SDS011;2196;47.422;9.656;2023-11-21T00:06:28;3.23;;;1.73;;
4365;SDS011;2196;47.422;9.656;2023-11-21T00:08:57;1.43;;;1.33;;
4365;SDS011;2196;47.422;9.656;2023-11-21T00:11:24;3.20;;;1.53;;
4365;SDS011;2196;47.422;9.656;2023-11-21T00:13:51;5.30;;;1.60;;
4365;SDS011;2196;47.422;9.656;2023-11-21T00:16:18;3.23;;;1.33;;
4365;SDS011;2196;47.422;9.656;2023-11-21T00:18:45;1.67;;;1.20;;
4365;SDS011;2196;47.422;9.656;2023-11-21T00:21:12;5.40;;;1.30;;
4365;SDS011;2196;47.422;9.656;2023-11-21T00:23:39;3.70;;;1.37;;
4365;SDS011;2196;47.422;9.656;2023-11-21T00:26:08;4.00;;;1.33;;
4365;SDS011;2196;47.422;9.656;2023-11-21T00:28:35;3.80;;;1.10;;
4365;SDS011;2196;47.422;9.656;2023-11-21T00:31:02;3.63;;;1.90;;
4365;SDS011;2196;47.422;9.656;2023-11-21T00:33:29;3.10;;;1.10;;
4365;SDS011;2196;47.422;9.656;2023-11-21T00:35:56;3.83;;;1.23;;
4365;SDS011;2196;47.422;9.656;2023-11-21T00:38:23;1.30;;;0.90;;
4365;SDS011;2196;47.422;9.656;2023-11-21T00:40:50;3.80;;;1.37;;
4365;SDS011;2196;47.422;9.656;2023-11-21T00:43:19;1.60;;;1.50;;
4365;SDS011;2196;47.422;9.656;2023-11-21T00:45:46;5.33;;;1.70;;
4365;SDS011;2196;47.422;9.656;2023-11-21T00:48:14;3.60;;;2.07;;
4365;SDS011;2196;47.422;9.656;2023-11-21T00:50:41;1.40;;;1.20;;
4365;SDS011;2196;47.422;9.656;2023-11-21T00:53:08;2.60;;;1.30;;
4365;SDS011;2196;47.422;9.656;2023-11-21T00:55:36;3.00;;;2.13;;
4365;SDS011;2196;47.422;9.656;2023-11-21T00:58:04;5.17;;;1.43;;
4365;SDS011;2196;47.422;9.656;2023-11-21T01:00:33;3.23;;;1.47;;
4365;SDS011;2196;47.422;9.656;2023-11-21T01:03:00;3.03;;;2.23;;
4365;SDS011;2196;47.422;9.656;2023-11-21T01:05:27;2.77;;;1.70;;
4365;SDS011;2196;47.422;9.656;2023-11-21T01:07:54;2.97;;;1.97;;
4365;SDS011;2196;47.422;9.656;2023-11-21T01:10:21;3.67;;;2.10;;
4365;SDS011;2196;47.422;9.656;2023-11-21T01:12:50;2.67;;;2.20;;
4365;SDS011;2196;47.422;9.656;2023-11-21T01:15:17;2.40;;;1.60;;
4365;SDS011;2196;47.422;9.656;2023-11-21T01:17:45;1.73;;;1.63;;
4365;SDS011;2196;47.422;9.656;2023-11-21T01:20:12;2.40;;;1.77;;
4365;SDS011;2196;47.422;9.656;2023-11-21T01:22:39;3.90;;;2.43;;
4365;SDS011;2196;47.422;9.656;2023-11-21T01:25:06;2.77;;;1.53;;
4365;SDS011;2196;47.422;9.656;2023-11-21T01:27:33;2.80;;;1.40;;
4365;SDS011;2196;47.422;9.656;2023-11-21T01:30:01;1.37;;;1.27;;
4365;SDS011;2196;47.422;9.656;2023-11-21T01:32:28;5.40;;;1.57;;
4365;SDS011;2196;47.422;9.656;2023-11-21T01:34:56;3.00;;;1.87;;
4365;SDS011;2196;47.422;9.656;2023-11-21T01:37:24;2.13;;;1.90;;
4365;SDS011;2196;47.422;9.656;2023-11-21T01:39:52;4.97;;;1.67;;
4365;SDS011;2196;47.422;9.656;2023-11-21T01:42:20;2.50;;;1.50;;
4365;SDS011;2196;47.422;9.656;2023-11-21T01:44:47;2.23;;;1.53;;
4365;SDS011;2196;47.422;9.656;2023-11-21T01:47:14;1.87;;;1.63;;
4365;SDS011;2196;47.422;9.656;2023-11-21T01:49:42;8.63;;;2.13;;
4365;SDS011;2196;47.422;9.656;2023-11-21T01:52:12;2.03;;;1.50;;
4365;SDS011;2196;47.422;9.656;2023-11-21T01:54:40;2.40;;;1.70;;
4365;SDS011;2196;47.422;9.656;2023-11-21T01:57:07;3.00;;;1.97;;
4365;SDS011;2196;47.422;9.656;2023-11-21T01:59:35;2.90;;;1.73;;
4365;SDS011;2196;47.422;9.656;2023-11-21T02:02:03;2.00;;;1.57;;
4365;SDS011;2196;47.422;9.656;2023-11-21T02:04:31;3.27;;;1.90;;
4365;SDS011;2196;47.422;9.656;2023-11-21T02:06:58;5.77;;;2.13;;
4365;SDS011;2196;47.422;9.656;2023-11-21T02:09:27;3.43;;;1.50;;
4365;SDS011;2196;47.422;9.656;2023-11-21T02:11:56;3.90;;;1.10;;
4365;SDS011;2196;47.422;9.656;2023-11-21T02:14:23;2.93;;;1.30;;
4365;SDS011;2196;47.422;9.656;2023-11-21T02:16:51;2.07;;;0.90;;
4365;SDS011;2196;47.422;9.656;2023-11-21T02:19:19;5.57;;;1.23;;
4365;SDS011;2196;47.422;9.656;2023-11-21T02:21:48;3.03;;;1.17;;
4365;SDS011;2196;47.422;9.656;2023-11-21T02:24:18;1.60;;;1.30;;
4365;SDS011;2196;47.422;9.656;2023-11-21T02:26:46;2.63;;;1.23;;
4365;SDS011;2196;47.422;9.656;2023-11-21T02:29:13;2.03;;;0.90;;
4365;SDS011;2196;47.422;9.656;2023-11-21T02:31:43;4.10;;;2.03;;
4365;SDS011;2196;47.422;9.656;2023-11-21T02:34:14;4.90;;;1.33;;
4365;SDS011;2196;47.422;9.656;2023-11-21T02:36:41;3.33;;;0.70;;
4365;SDS011;2196;47.422;9.656;2023-11-21T02:39:08;5.00;;;0.70;;
4365;SDS011;2196;47.422;9.656;2023-11-21T02:41:37;1.47;;;0.70;;
4365;SDS011;2196;47.422;9.656;2023-11-21T02:44:05;1.83;;;0.70;;
4365;SDS011;2196;47.422;9.656;2023-11-21T02:46:34;3.40;;;0.83;;
4365;SDS011;2196;47.422;9.656;2023-11-21T02:49:01;4.33;;;1.10;;
4365;SDS011;2196;47.422;9.656;2023-11-21T02:51:29;5.27;;;0.80;;
4365;SDS011;2196;47.422;9.656;2023-11-21T02:53:56;5.33;;;1.70;;
4365;SDS011;2196;47.422;9.656;2023-11-21T02:56:25;4.07;;;1.40;;
4365;SDS011;2196;47.422;9.656;2023-11-21T02:58:55;1.83;;;1.37;;
4365;SDS011;2196;47.422;9.656;2023-11-21T03:01:22;1.40;;;1.30;;
4365;SDS011;2196;47.422;9.656;2023-11-21T03:03:50;4.70;;;1.50;;
4365;SDS011;2196;47.422;9.656;2023-11-21T03:06:17;6.83;;;2.30;;
4365;SDS011;2196;47.422;9.656;2023-11-21T03:08:44;3.53;;;1.70;;
4365;SDS011;2196;47.422;9.656;2023-11-21T03:11:12;2.07;;;1.73;;
4365;SDS011;2196;47.422;9.656;2023-11-21T03:13:39;2.77;;;2.43;;
4365;SDS011;2196;47.422;9.656;2023-11-21T03:16:09;4.07;;;3.20;;
4365;SDS011;2196;47.422;9.656;2023-11-21T03:18:36;3.90;;;2.37;;
4365;SDS011;2196;47.422;9.656;2023-11-21T03:21:03;2.30;;;2.10;;
4365;SDS011;2196;47.422;9.656;2023-11-21T03:23:30;2.80;;;1.70;;
4365;SDS011;2196;47.422;9.656;2023-11-21T03:25:57;3.07;;;1.43;;
4365;SDS011;2196;47.422;9.656;2023-11-21T03:28:25;2.70;;;2.50;;
4365;SDS011;2196;47.422;9.656;2023-11-21T03:30:53;1.73;;;1.60;;
4365;SDS011;2196;47.422;9.656;2023-11-21T03:33:21;3.07;;;2.10;;
4365;SDS011;2196;47.422;9.656;2023-11-21T03:35:48;2.70;;;1.97;;
4365;SDS011;2196;47.422;9.656;2023-11-21T03:38:15;3.33;;;1.80;;
4365;SDS011;2196;47.422;9.656;2023-11-21T03:40:42;5.43;;;2.30;;
4365;SDS011;2196;47.422;9.656;2023-11-21T03:43:09;2.20;;;1.17;;
4365;SDS011;2196;47.422;9.656;2023-11-21T03:45:36;3.07;;;2.17;;
4365;SDS011;2196;47.422;9.656;2023-11-21T03:48:05;2.43;;;2.07;;
4365;SDS011;2196;47.422;9.656;2023-11-21T03:50:33;1.87;;;1.57;;
4365;SDS011;2196;47.422;9.656;2023-11-21T03:53:01;4.80;;;3.23;;
4365;SDS011;2196;47.422;9.656;2023-11-21T03:55:28;1.93;;;1.80;;
4365;SDS011;2196;47.422;9.656;2023-11-21T03:57:56;2.77;;;2.00;;
4365;SDS011;2196;47.422;9.656;2023-11-21T04:00:24;6.10;;;2.20;;
4365;SDS011;2196;47.422;9.656;2023-11-21T04:02:52;4.63;;;2.47;;
4365;SDS011;2196;47.422;9.656;2023-11-21T04:05:19;2.30;;;1.90;;
4365;SDS011;2196;47.422;9.656;2023-11-21T04:07:49;3.37;;;1.47;;
4365;SDS011;2196;47.422;9.656;2023-11-21T04:10:16;2.67;;;1.53;;
4365;SDS011;2196;47.422;9.656;2023-11-21T04:12:44;1.67;;;1.40;;
4365;SDS011;2196;47.422;9.656;2023-11-21T04:15:11;5.53;;;2.00;;
4365;SDS011;2196;47.422;9.656;2023-11-21T04:17:39;2.13;;;1.40;;
4365;SDS011;2196;47.422;9.656;2023-11-21T04:20:07;5.97;;;1.83;;
4365;SDS011;2196;47.422;9.656;2023-11-21T04:22:36;1.77;;;1.50;;
4365;SDS011;2196;47.422;9.656;2023-11-21T04:25:07;3.67;;;1.40;;
4365;SDS011;2196;47.422;9.656;2023-11-21T04:27:35;3.77;;;1.40;;
4365;SDS011;2196;47.422;9.656;2023-11-21T04:30:02;3.70;;;1.37;;
4365;SDS011;2196;47.422;9.656;2023-11-21T04:32:30;4.53;;;1.87;;
4365;SDS011;2196;47.422;9.656;2023-11-21T04:34:57;1.63;;;1.37;;
4365;SDS011;2196;47.422;9.656;2023-11-21T04:37:24;2.63;;;1.10;;
4365;SDS011;2196;47.422;9.656;2023-11-21T04:39:51;2.40;;;1.47;;
4365;SDS011;2196;47.422;9.656;2023-11-21T04:42:19;3.10;;;2.37;;
4365;SDS011;2196;47.422;9.656;2023-11-21T04:44:46;5.80;;;3.23;;
4365;SDS011;2196;47.422;9.656;2023-11-21T04:47:15;3.53;;;1.63;;
4365;SDS011;2196;47.422;9.656;2023-11-21T04:49:45;5.93;;;3.83;;
4365;SDS011;2196;47.422;9.656;2023-11-21T04:52:13;9.17;;;5.27;;
4365;SDS011;2196;47.422;9.656;2023-11-21T04:54:40;13.03;;;4.63;;
4365;SDS011;2196;47.422;9.656;2023-11-21T04:57:08;14.23;;;6.57;;
4365;SDS011;2196;47.422;9.656;2023-11-21T04:59:36;16.67;;;7.23;;
4365;SDS011;2196;47.422;9.656;2023-11-21T05:02:03;17.03;;;6.80;;
4365;SDS011;2196;47.422;9.656;2023-11-21T05:04:30;12.37;;;5.80;;
4365;SDS011;2196;47.422;9.656;2023-11-21T05:06:58;11.77;;;5.43;;
4365;SDS011;2196;47.422;9.656;2023-11-21T05:09:25;8.40;;;3.30;;
4365;SDS011;2196;47.422;9.656;2023-11-21T05:11:53;4.40;;;1.90;;
4365;SDS011;2196;47.422;9.656;2023-11-21T05:14:20;5.83;;;1.90;;
4365;SDS011;2196;47.422;9.656;2023-11-21T05:16:49;3.23;;;0.73;;
4365;SDS011;2196;47.422;9.656;2023-11-21T05:19:17;2.73;;;1.00;;
4365;SDS011;2196;47.422;9.656;2023-11-21T05:21:43;2.23;;;0.83;;
4365;SDS011;2196;47.422;9.656;2023-11-21T05:24:12;2.40;;;1.20;;
4365;SDS011;2196;47.422;9.656;2023-11-21T05:26:39;1.47;;;0.90;;
4365;SDS011;2196;47.422;9.656;2023-11-21T05:29:06;2.57;;;0.70;;
4365;SDS011;2196;47.422;9.656;2023-11-21T05:31:34;1.47;;;0.80;;
4365;SDS011;2196;47.422;9.656;2023-11-21T05:34:03;3.53;;;0.87;;
4365;SDS011;2196;47.422;9.656;2023-11-21T05:36:30;2.80;;;0.93;;
4365;SDS011;2196;47.422;9.656;2023-11-21T05:38:57;3.07;;;0.77;;
4365;SDS011;2196;47.422;9.656;2023-11-21T05:41:24;4.47;;;1.00;;
4365;SDS011;2196;47.422;9.656;2023-11-21T05:43:52;4.07;;;1.30;;
4365;SDS011;2196;47.422;9.656;2023-11-21T05:46:19;1.47;;;0.97;;
4365;SDS011;2196;47.422;9.656;2023-11-21T05:48:46;0.97;;;0.80;;
4365;SDS011;2196;47.422;9.656;2023-11-21T05:51:15;5.47;;;1.30;;
4365;SDS011;2196;47.422;9.656;2023-11-21T05:53:42;4.33;;;1.63;;
4365;SDS011;2196;47.422;9.656;2023-11-21T05:56:09;2.23;;;0.80;;
4365;SDS011;2196;47.422;9.656;2023-11-21T05:58:36;3.13;;;0.80;;
4365;SDS011;2196;47.422;9.656;2023-11-21T06:01:05;2.20;;;1.40;;
4365;SDS011;2196;47.422;9.656;2023-11-21T06:03:32;4.20;;;1.43;;
4365;SDS011;2196;47.422;9.656;2023-11-21T06:05:59;1.80;;;1.67;;
4365;SDS011;2196;47.422;9.656;2023-11-21T06:08:28;4.60;;;1.73;;
4365;SDS011;2196;47.422;9.656;2023-11-21T06:10:55;4.73;;;2.27;;
4365;SDS011;2196;47.422;9.656;2023-11-21T06:13:22;0.90;;;0.90;;
4365;SDS011;2196;47.422;9.656;2023-11-21T06:15:49;5.30;;;1.20;;
4365;SDS011;2196;47.422;9.656;2023-11-21T06:18:16;4.40;;;1.03;;
4365;SDS011;2196;47.422;9.656;2023-11-21T06:20:44;7.13;;;1.50;;
4365;SDS011;2196;47.422;9.656;2023-11-21T06:23:11;4.67;;;1.20;;
4365;SDS011;2196;47.422;9.656;2023-11-21T06:25:40;4.47;;;1.53;;
4365;SDS011;2196;47.422;9.656;2023-11-21T06:28:07;4.90;;;1.43;;
4365;SDS011;2196;47.422;9.656;2023-11-21T06:30:34;2.93;;;1.77;;
4365;SDS011;2196;47.422;9.656;2023-11-21T06:33:01;4.57;;;1.43;;
4365;SDS011;2196;47.422;9.656;2023-11-21T06:35:28;5.27;;;1.80;;
4365;SDS011;2196;47.422;9.656;2023-11-21T06:37:58;2.33;;;1.80;;
4365;SDS011;2196;47.422;9.656;2023-11-21T06:40:25;2.93;;;1.07;;
4365;SDS011;2196;47.422;9.656;2023-11-21T06:42:54;7.40;;;1.27;;
4365;SDS011;2196;47.422;9.656;2023-11-21T06:45:21;0.97;;;0.87;;
4365;SDS011;2196;47.422;9.656;2023-11-21T06:47:48;5.03;;;1.43;;
4365;SDS011;2196;47.422;9.656;2023-11-21T06:50:15;3.53;;;0.90;;
4365;SDS011;2196;47.422;9.656;2023-11-21T06:52:42;4.73;;;1.97;;
4365;SDS011;2196;47.422;9.656;2023-11-21T06:55:09;1.60;;;1.40;;
4365;SDS011;2196;47.422;9.656;2023-11-21T06:57:36;4.67;;;1.87;;
4365;SDS011;2196;47.422;9.656;2023-11-21T07:00:05;1.77;;;1.67;;
4365;SDS011;2196;47.422;9.656;2023-11-21T07:02:34;2.30;;;2.10;;
4365;SDS011;2196;47.422;9.656;2023-11-21T07:05:01;2.60;;;1.57;;
4365;SDS011;2196;47.422;9.656;2023-11-21T07:07:28;2.47;;;1.60;;
4365;SDS011;2196;47.422;9.656;2023-11-21T07:09:55;3.08;;;1.65;;
4365;SDS011;2196;47.422;9.656;2023-11-21T07:12:22;1.40;;;1.30;;
4365;SDS011;2196;47.422;9.656;2023-11-21T07:14:50;3.63;;;1.17;;
4365;SDS011;2196;47.422;9.656;2023-11-21T07:17:19;5.13;;;1.60;;
4365;SDS011;2196;47.422;9.656;2023-11-21T07:19:48;8.20;;;2.13;;
4365;SDS011;2196;47.422;9.656;2023-11-21T07:22:15;3.23;;;2.07;;
4365;SDS011;2196;47.422;9.656;2023-11-21T07:24:47;5.90;;;2.67;;
4365;SDS011;2196;47.422;9.656;2023-11-21T07:27:15;2.10;;;1.90;;
4365;SDS011;2196;47.422;9.656;2023-11-21T07:29:43;4.07;;;2.13;;
4365;SDS011;2196;47.422;9.656;2023-11-21T07:32:10;3.43;;;2.30;;
4365;SDS011;2196;47.422;9.656;2023-11-21T07:34:39;3.93;;;2.83;;
4365;SDS011;2196;47.422;9.656;2023-11-21T07:37:07;7.03;;;2.77;;
4365;SDS011;2196;47.422;9.656;2023-11-21T07:39:35;3.90;;;3.50;;
4365;SDS011;2196;47.422;9.656;2023-11-21T07:42:02;5.00;;;3.30;;
4365;SDS011;2196;47.422;9.656;2023-11-21T07:44:29;5.17;;;3.50;;
4365;SDS011;2196;47.422;9.656;2023-11-21T07:46:56;6.63;;;4.00;;
4365;SDS011;2196;47.422;9.656;2023-11-21T07:49:23;4.47;;;3.60;;
4365;SDS011;2196;47.422;9.656;2023-11-21T07:51:53;3.23;;;2.83;;
4365;SDS011;2196;47.422;9.656;2023-11-21T07:54:20;2.90;;;2.63;;
4365;SDS011;2196;47.422;9.656;2023-11-21T07:56:47;4.93;;;2.73;;
4365;SDS011;2196;47.422;9.656;2023-11-21T07:59:14;4.43;;;3.43;;
4365;SDS011;2196;47.422;9.656;2023-11-21T08:01:42;4.87;;;2.93;;
4365;SDS011;2196;47.422;9.656;2023-11-21T08:04:10;5.50;;;3.30;;
4365;SDS011;2196;47.422;9.656;2023-11-21T08:06:38;8.63;;;3.80;;
4365;SDS011;2196;47.422;9.656;2023-11-21T08:09:08;6.90;;;3.60;;
4365;SDS011;2196;47.422;9.656;2023-11-21T08:11:37;6.27;;;2.67;;
4365;SDS011;2196;47.422;9.656;2023-11-21T08:14:04;4.23;;;2.67;;
4365;SDS011;2196;47.422;9.656;2023-11-21T08:16:34;8.07;;;2.70;;
4365;SDS011;2196;47.422;9.656;2023-11-21T08:19:06;3.93;;;2.03;;
4365;SDS011;2196;47.422;9.656;2023-11-21T08:21:37;4.23;;;3.10;;
4365;SDS011;2196;47.422;9.656;2023-11-21T08:24:05;4.40;;;3.30;;
4365;SDS011;2196;47.422;9.656;2023-11-21T08:26:39;4.70;;;2.40;;
4365;SDS011;2196;47.422;9.656;2023-11-21T08:29:06;4.87;;;2.50;;
4365;SDS011;2196;47.422;9.656;2023-11-21T08:31:37;5.93;;;2.20;;
4365;SDS011;2196;47.422;9.656;2023-11-21T08:34:04;4.60;;;2.70;;
4365;SDS011;2196;47.422;9.656;2023-11-21T08:36:31;6.43;;;3.17;;
4365;SDS011;2196;47.422;9.656;2023-11-21T08:38:58;6.73;;;3.07;;
4365;SDS011;2196;47.422;9.656;2023-11-21T08:41:27;4.00;;;2.57;;
4365;SDS011;2196;47.422;9.656;2023-11-21T08:43:55;3.43;;;2.53;;
4365;SDS011;2196;47.422;9.656;2023-11-21T08:46:23;7.17;;;3.27;;
4365;SDS011;2196;47.422;9.656;2023-11-21T08:48:50;4.93;;;3.20;;
4365;SDS011;2196;47.422;9.656;2023-11-21T08:51:18;7.37;;;3.27;;
4365;SDS011;2196;47.422;9.656;2023-11-21T08:53:45;4.67;;;3.10;;
4365;SDS011;2196;47.422;9.656;2023-11-21T08:56:12;5.83;;;2.40;;
4365;SDS011;2196;47.422;9.656;2023-11-21T08:58:41;4.50;;;2.87;;
4365;SDS011;2196;47.422;9.656;2023-11-21T09:01:08;3.50;;;2.47;;
4365;SDS011;2196;47.422;9.656;2023-11-21T09:03:35;6.53;;;2.33;;
4365;SDS011;2196;47.422;9.656;2023-11-21T09:06:03;3.43;;;3.00;;
4365;SDS011;2196;47.422;9.656;2023-11-21T09:08:30;7.00;;;2.93;;
4365;SDS011;2196;47.422;9.656;2023-11-21T09:10:57;8.90;;;3.43;;
4365;SDS011;2196;47.422;9.656;2023-11-21T09:13:24;4.57;;;3.37;;
4365;SDS011;2196;47.422;9.656;2023-11-21T09:15:52;2.60;;;2.40;;
4365;SDS011;2196;47.422;9.656;2023-11-21T09:18:20;7.80;;;2.93;;
4365;SDS011;2196;47.422;9.656;2023-11-21T09:20:47;6.60;;;2.93;;
4365;SDS011;2196;47.422;9.656;2023-11-21T09:23:13;3.93;;;2.43;;
4365;SDS011;2196;47.422;9.656;2023-11-21T09:25:40;6.97;;;2.97;;
4365;SDS011;2196;47.422;9.656;2023-11-21T09:28:11;3.80;;;2.53;;
4365;SDS011;2196;47.422;9.656;2023-11-21T09:30:38;4.17;;;2.77;;
4365;SDS011;2196;47.422;9.656;2023-11-21T09:33:06;4.40;;;2.50;;
4365;SDS011;2196;47.422;9.656;2023-11-21T09:35:35;3.77;;;2.40;;
4365;SDS011;2196;47.422;9.656;2023-11-21T09:38:03;6.00;;;2.13;;
4365;SDS011;2196;47.422;9.656;2023-11-21T09:40:35;5.70;;;2.90;;
4365;SDS011;2196;47.422;9.656;2023-11-21T09:43:02;1.63;;;1.30;;
4365;SDS011;2196;47.422;9.656;2023-11-21T09:45:34;2.30;;;1.63;;
4365;SDS011;2196;47.422;9.656;2023-11-21T09:48:02;1.80;;;0.80;;
4365;SDS011;2196;47.422;9.656;2023-11-21T09:50:31;1.60;;;0.80;;
4365;SDS011;2196;47.422;9.656;2023-11-21T09:53:03;1.67;;;0.87;;
4365;SDS011;2196;47.422;9.656;2023-11-21T09:55:38;2.23;;;1.10;;
4365;SDS011;2196;47.422;9.656;2023-11-21T09:58:09;2.47;;;1.33;;
4365;SDS011;2196;47.422;9.656;2023-11-21T10:00:38;7.37;;;1.33;;
4365;SDS011;2196;47.422;9.656;2023-11-21T10:03:07;4.33;;;1.63;;
4365;SDS011;2196;47.422;9.656;2023-11-21T10:05:36;2.53;;;1.23;;
4365;SDS011;2196;47.422;9.656;2023-11-21T10:08:04;3.53;;;1.27;;
4365;SDS011;2196;47.422;9.656;2023-11-21T10:10:35;2.97;;;1.60;;
4365;SDS011;2196;47.422;9.656;2023-11-21T10:13:03;1.90;;;1.53;;
4365;SDS011;2196;47.422;9.656;2023-11-21T10:15:33;5.70;;;1.60;;
4365;SDS011;2196;47.422;9.656;2023-11-21T10:18:01;1.47;;;1.30;;
4365;SDS011;2196;47.422;9.656;2023-11-21T10:20:31;2.70;;;1.52;;
4365;SDS011;2196;47.422;9.656;2023-11-21T10:23:01;4.90;;;1.67;;
4365;SDS011;2196;47.422;9.656;2023-11-21T10:25:29;3.87;;;1.23;;
4365;SDS011;2196;47.422;9.656;2023-11-21T10:27:57;1.97;;;1.43;;
4365;SDS011;2196;47.422;9.656;2023-11-21T10:30:31;3.80;;;0.97;;
4365;SDS011;2196;47.422;9.656;2023-11-21T10:33:02;2.87;;;1.00;;
4365;SDS011;2196;47.422;9.656;2023-11-21T10:35:39;1.70;;;0.90;;
4365;SDS011;2196;47.422;9.656;2023-11-21T10:38:13;1.47;;;0.90;;
4365;SDS011;2196;47.422;9.656;2023-11-21T10:40:40;2.20;;;0.87;;
4365;SDS011;2196;47.422;9.656;2023-11-21T10:43:09;4.03;;;1.07;;
4365;SDS011;2196;47.422;9.656;2023-11-21T10:45:38;0.97;;;0.87;;
4365;SDS011;2196;47.422;9.656;2023-11-21T10:48:06;1.07;;;1.07;;
4365;SDS011;2196;47.422;9.656;2023-11-21T10:50:34;4.00;;;1.23;;
4365;SDS011;2196;47.422;9.656;2023-11-21T10:53:01;0.90;;;0.83;;
4365;SDS011;2196;47.422;9.656;2023-11-21T10:55:33;0.63;;;0.60;;
4365;SDS011;2196;47.422;9.656;2023-11-21T10:58:00;2.53;;;0.80;;
4365;SDS011;2196;47.422;9.656;2023-11-21T11:00:30;1.13;;;0.30;;
4365;SDS011;2196;47.422;9.656;2023-11-21T11:02:59;1.20;;;0.63;;
4365;SDS011;2196;47.422;9.656;2023-11-21T11:05:27;0.83;;;0.60;;
4365;SDS011;2196;47.422;9.656;2023-11-21T11:07:57;0.93;;;0.40;;
4365;SDS011;2196;47.422;9.656;2023-11-21T11:10:28;1.87;;;0.40;;
4365;SDS011;2196;47.422;9.656;2023-11-21T11:12:57;2.10;;;0.70;;
4365;SDS011;2196;47.422;9.656;2023-11-21T11:15:25;1.70;;;0.40;;
4365;SDS011;2196;47.422;9.656;2023-11-21T11:17:53;0.67;;;0.40;;
4365;SDS011;2196;47.422;9.656;2023-11-21T11:20:23;1.70;;;0.60;;
4365;SDS011;2196;47.422;9.656;2023-11-21T11:22:56;0.40;;;0.40;;
4365;SDS011;2196;47.422;9.656;2023-11-21T11:25:38;1.03;;;0.70;;
4365;SDS011;2196;47.422;9.656;2023-11-21T11:28:17;0.63;;;0.37;;
4365;SDS011;2196;47.422;9.656;2023-11-21T11:30:51;2.00;;;0.60;;
4365;SDS011;2196;47.422;9.656;2023-11-21T11:33:31;0.70;;;0.60;;
4365;SDS011;2196;47.422;9.656;2023-11-21T11:36:05;0.53;;;0.50;;
4365;SDS011;2196;47.422;9.656;2023-11-21T11:38:37;0.40;;;0.40;;
4365;SDS011;2196;47.422;9.656;2023-11-21T11:41:04;2.00;;;0.43;;
4365;SDS011;2196;47.422;9.656;2023-11-21T11:43:35;0.83;;;0.40;;
4365;SDS011;2196;47.422;9.656;2023-11-21T11:46:09;1.63;;;1.50;;
4365;SDS011;2196;47.422;9.656;2023-11-21T11:48:38;1.63;;;0.80;;
4365;SDS011;2196;47.422;9.656;2023-11-21T11:51:06;1.43;;;1.37;;
4365;SDS011;2196;47.422;9.656;2023-11-21T11:53:37;1.33;;;0.20;;
4365;SDS011;2196;47.422;9.656;2023-11-21T11:56:19;1.13;;;0.20;;
4365;SDS011;2196;47.422;9.656;2023-11-21T11:58:53;0.67;;;0.20;;
4365;SDS011;2196;47.422;9.656;2023-11-21T12:01:22;0.50;;;0.50;;
4365;SDS011;2196;47.422;9.656;2023-11-21T12:06:59;0.47;;;0.33;;
4365;SDS011;2196;47.422;9.656;2023-11-21T12:09:28;0.30;;;0.30;;
4365;SDS011;2196;47.422;9.656;2023-11-21T12:11:57;0.30;;;0.30;;
4365;SDS011;2196;47.422;9.656;2023-11-21T12:14:26;2.60;;;0.93;;
4365;SDS011;2196;47.422;9.656;2023-11-21T12:16:54;0.70;;;0.50;;
4365;SDS011;2196;47.422;9.656;2023-11-21T12:19:21;0.40;;;0.40;;
4365;SDS011;2196;47.422;9.656;2023-11-21T12:21:49;0.20;;;0.20;;
4365;SDS011;2196;47.422;9.656;2023-11-21T12:24:17;0.30;;;0.20;;
4365;SDS011;2196;47.422;9.656;2023-11-21T12:26:44;0.40;;;0.40;;
4365;SDS011;2196;47.422;9.656;2023-11-21T12:29:11;0.77;;;0.20;;
4365;SDS011;2196;47.422;9.656;2023-11-21T12:31:41;1.10;;;0.50;;
4365;SDS011;2196;47.422;9.656;2023-11-21T12:34:09;0.37;;;0.37;;
4365;SDS011;2196;47.422;9.656;2023-11-21T12:36:37;0.60;;;0.60;;
4365;SDS011;2196;47.422;9.656;2023-11-21T12:39:05;1.63;;;0.70;;
4365;SDS011;2196;47.422;9.656;2023-11-21T12:41:37;0.50;;;0.50;;
4365;SDS011;2196;47.422;9.656;2023-11-21T12:44:05;1.43;;;0.53;;
4365;SDS011;2196;47.422;9.656;2023-11-21T12:46:42;1.13;;;0.40;;
4365;SDS011;2196;47.422;9.656;2023-11-21T12:49:11;1.23;;;0.57;;
4365;SDS011;2196;47.422;9.656;2023-11-21T12:51:42;1.60;;;0.70;;
4365;SDS011;2196;47.422;9.656;2023-11-21T12:54:10;3.17;;;0.67;;
4365;SDS011;2196;47.422;9.656;2023-11-21T12:56:38;0.37;;;0.37;;
4365;SDS011;2196;47.422;9.656;2023-11-21T12:59:05;0.40;;;0.40;;
4365;SDS011;2196;47.422;9.656;2023-11-21T13:01:32;1.70;;;0.93;;
4365;SDS011;2196;47.422;9.656;2023-11-21T13:04:07;0.60;;;0.60;;
4365;SDS011;2196;47.422;9.656;2023-11-21T13:06:35;1.23;;;0.80;;
4365;SDS011;2196;47.422;9.656;2023-11-21T13:09:06;0.70;;;0.63;;
4365;SDS011;2196;47.422;9.656;2023-11-21T13:11:39;1.07;;;0.90;;
4365;SDS011;2196;47.422;9.656;2023-11-21T13:14:06;2.13;;;1.37;;
4365;SDS011;2196;47.422;9.656;2023-11-21T13:16:38;0.80;;;0.80;;
4365;SDS011;2196;47.422;9.656;2023-11-21T13:19:12;0.53;;;0.43;;
4365;SDS011;2196;47.422;9.656;2023-11-21T13:21:39;0.30;;;0.30;;
4365;SDS011;2196;47.422;9.656;2023-11-21T13:24:06;0.70;;;0.47;;
4365;SDS011;2196;47.422;9.656;2023-11-21T13:26:37;0.20;;;0.20;;
4365;SDS011;2196;47.422;9.656;2023-11-21T13:29:04;0.13;;;0.13;;
4365;SDS011;2196;47.422;9.656;2023-11-21T13:31:31;1.03;;;0.40;;
4365;SDS011;2196;47.422;9.656;2023-11-21T13:34:02;0.80;;;0.30;;
4365;SDS011;2196;47.422;9.656;2023-11-21T13:36:38;0.20;;;0.20;;
4365;SDS011;2196;47.422;9.656;2023-11-21T13:39:07;0.23;;;0.10;;
4365;SDS011;2196;47.422;9.656;2023-11-21T13:41:40;0.73;;;0.13;;
4365;SDS011;2196;47.422;9.656;2023-11-21T13:44:07;0.30;;;0.30;;
4365;SDS011;2196;47.422;9.656;2023-11-21T13:46:41;0.20;;;0.20;;
4365;SDS011;2196;47.422;9.656;2023-11-21T13:49:09;1.50;;;0.10;;
4365;SDS011;2196;47.422;9.656;2023-11-21T13:51:38;0.50;;;0.50;;
4365;SDS011;2196;47.422;9.656;2023-11-21T13:54:08;0.20;;;0.20;;
4365;SDS011;2196;47.422;9.656;2023-11-21T13:56:37;0.73;;;0.20;;
4365;SDS011;2196;47.422;9.656;2023-11-21T13:59:05;1.00;;;0.47;;
4365;SDS011;2196;47.422;9.656;2023-11-21T14:01:42;0.23;;;0.23;;
4365;SDS011;2196;47.422;9.656;2023-11-21T14:04:19;0.40;;;0.30;;
4365;SDS011;2196;47.422;9.656;2023-11-21T14:07:02;1.20;;;0.30;;
4365;SDS011;2196;47.422;9.656;2023-11-21T14:09:45;0.60;;;0.20;;
4365;SDS011;2196;47.422;9.656;2023-11-21T14:12:14;0.40;;;0.20;;
4365;SDS011;2196;47.422;9.656;2023-11-21T14:14:42;1.80;;;1.50;;
4365;SDS011;2196;47.422;9.656;2023-11-21T14:17:10;2.80;;;2.40;;
4365;SDS011;2196;47.422;9.656;2023-11-21T14:19:37;3.30;;;3.00;;
4365;SDS011;2196;47.422;9.656;2023-11-21T14:22:09;1.13;;;0.80;;
4365;SDS011;2196;47.422;9.656;2023-11-21T14:24:36;2.00;;;0.40;;
4365;SDS011;2196;47.422;9.656;2023-11-21T14:27:09;0.67;;;0.20;;
4365;SDS011;2196;47.422;9.656;2023-11-21T14:29:35;1.40;;;0.30;;
4365;SDS011;2196;47.422;9.656;2023-11-21T14:32:05;0.23;;;0.20;;
4365;SDS011;2196;47.422;9.656;2023-11-21T14:34:33;1.90;;;0.20;;
4365;SDS011;2196;47.422;9.656;2023-11-21T14:37:00;1.27;;;0.23;;
4365;SDS011;2196;47.422;9.656;2023-11-21T14:39:30;1.40;;;0.40;;
4365;SDS011;2196;47.422;9.656;2023-11-21T14:42:00;0.77;;;0.27;;
4365;SDS011;2196;47.422;9.656;2023-11-21T14:44:28;0.83;;;0.27;;
4365;SDS011;2196;47.422;9.656;2023-11-21T14:47:00;0.37;;;0.30;;
4365;SDS011;2196;47.422;9.656;2023-11-21T14:49:31;0.67;;;0.30;;
4365;SDS011;2196;47.422;9.656;2023-11-21T14:52:10;1.47;;;0.37;;
4365;SDS011;2196;47.422;9.656;2023-11-21T14:54:55;0.40;;;0.40;;
4365;SDS011;2196;47.422;9.656;2023-11-21T14:57:41;0.97;;;0.30;;
4365;SDS011;2196;47.422;9.656;2023-11-21T15:00:14;0.90;;;0.33;;
4365;SDS011;2196;47.422;9.656;2023-11-21T15:03:00;0.50;;;0.50;;
4365;SDS011;2196;47.422;9.656;2023-11-21T15:05:28;0.50;;;0.37;;
4365;SDS011;2196;47.422;9.656;2023-11-21T15:07:54;1.63;;;0.50;;
4365;SDS011;2196;47.422;9.656;2023-11-21T15:10:23;0.80;;;0.80;;
4365;SDS011;2196;47.422;9.656;2023-11-21T15:13:03;0.57;;;0.57;;
4365;SDS011;2196;47.422;9.656;2023-11-21T15:15:30;0.80;;;0.80;;
4365;SDS011;2196;47.422;9.656;2023-11-21T15:17:59;0.90;;;0.90;;
4365;SDS011;2196;47.422;9.656;2023-11-21T15:20:26;1.77;;;0.67;;
4365;SDS011;2196;47.422;9.656;2023-11-21T15:22:53;2.77;;;0.60;;
4365;SDS011;2196;47.422;9.656;2023-11-21T15:25:20;7.80;;;0.93;;
4365;SDS011;2196;47.422;9.656;2023-11-21T15:27:48;3.73;;;1.23;;